Have a Safe July 4th! 

Flight Track Log - Related Links

Times and Time Zones

All times are in EDT time to prevent confusion due to time zone crossing. See the AAL1071 flight status page for this flight to view local times or setup timezone preferences in your user account.

Time Position Orientation Groundspeed Altitude Reporting Facility
EDT Latitude Longitude Course Direction KTS MPH feet Rate Location/Type
Fri 06:32:17 AM 39.0720 -76.5600 140° Southeast 273 314 5,200  Level FlightAware ADS-B
Fri 06:32:47 AM 39.0420 -76.5300 142° Southeast 273 314 7,000 3,273 Climbing FlightAware ADS-B
Fri 06:33:12 AM 39.0180 -76.5040 140° Southeast 279 321 8,200 2,842 Climbing FlightAware ADS-B
Fri 06:33:44 AM 38.9797 -76.4828 157° South 276 318 9,700 2,833 Climbing FlightAware ADS-B
Fri 06:33:48 AM 38.9753 -76.4835 187° South 276 318 9,900 2,769 Climbing FlightAware ADS-B
Fri 06:33:57 AM 38.9642 -76.4877 196° South 275 316 10,300 1,950 Climbing FlightAware ADS-B
Fri 06:34:28 AM 38.9261 -76.5096 204° Southwest 301 346 11,200 2,000 Climbing FlightAware ADS-B
Fri 06:35:06 AM 38.8772 -76.5397 206° Southwest 320 368 12,600 2,400 Climbing FlightAware ADS-B
Fri 06:35:38 AM 38.8327 -76.5655 204° Southwest 332 382 14,000 2,667 Climbing FlightAware ADS-B
Fri 06:36:09 AM 38.7892 -76.5911 205° Southwest 334 384 15,400 2,600 Climbing FlightAware ADS-B
Fri 06:36:38 AM 38.7482 -76.6154 205° Southwest 339 390 16,600 2,381 Climbing FlightAware ADS-B
Fri 06:37:12 AM 38.6993 -76.6441 205° Southwest 346 398 17,900 2,123 Climbing FlightAware ADS-B
Fri 06:37:43 AM 38.6539 -76.6707 205° Southwest 354 407 18,900 2,129 Climbing FlightAware ADS-B
Fri 06:38:14 AM 38.6069 -76.6982 205° Southwest 356 410 20,100 2,250 Climbing FlightAware ADS-B
Fri 06:38:31 AM 38.5808 -76.7129 204° Southwest 357 411 20,700 1,920 Climbing FlightAware ADS-B
Fri 06:38:39 AM 38.5679 -76.7178 197° South 358 412 20,900 1,600 Climbing FlightAware ADS-B
Fri 06:38:46 AM 38.5572 -76.7204 191° South 360 414 21,100 1,826 Climbing FlightAware ADS-B
Fri 06:39:02 AM 38.5308 -76.7215 182° South 363 418 21,600 1,625 Climbing FlightAware ADS-B
Fri 06:39:34 AM 38.4770 -76.7140 174° South 374 430 22,400 1,600 Climbing FlightAware ADS-B
Fri 06:39:47 AM 38.4532 -76.7111 175° South 375 432 22,800 1,579 Climbing FlightAware ADS-B
Fri 06:40:31 AM 38.3750 -76.7005 174° South 381 438 23,900 1,518 Climbing FlightAware ADS-B
Fri 06:41:10 AM 38.3071 -76.6915 174° South 381 438 24,900 1,568 Climbing FlightAware ADS-B
Fri 06:42:22 AM 38.1790 -76.6750 174° South 391 450 26,800 1,579 Climbing FlightAware ADS-B
Fri 06:43:04 AM 38.1030 -76.6790 182° South 385 443 27,900 923 Climbing FlightAware ADS-B
Fri 06:43:40 AM 38.0390 -76.6900 188° South 393 452 28,000 71 Climbing FlightAware ADS-B
Fri 06:44:28 AM 37.9540 -76.7090 190° South 390 449 28,000  Level FlightAware ADS-B
Fri 06:45:08 AM 37.8820 -76.7310 194° South 388 447 28,000  Level FlightAware ADS-B
Fri 06:45:52 AM 37.8090 -76.7670 201° Southwest 386 444 28,000  Level FlightAware ADS-B
Fri 06:46:33 AM 37.7430 -76.8040 204° Southwest 387 445 28,000  Level FlightAware ADS-B
Fri 06:47:16 AM 37.6740 -76.8470 206° Southwest 387 445 28,000  Level FlightAware ADS-B
Fri 06:47:58 AM 37.6050 -76.8880 205° Southwest 388 447 28,000  Level FlightAware ADS-B
Fri 06:48:38 AM 37.5390 -76.9270 205° Southwest 387 445 28,000  Level FlightAware ADS-B
Fri 06:49:18 AM 37.4760 -76.9650 206° Southwest 386 444 28,000  Level FlightAware ADS-B
Fri 06:50:04 AM 37.4020 -77.0120 207° Southwest 386 444 28,000  Level FlightAware ADS-B
Fri 06:50:44 AM 37.3380 -77.0530 207° Southwest 386 444 28,000  Level FlightAware ADS-B
Fri 06:51:28 AM 37.2690 -77.0980 207° Southwest 387 445 28,000  Level FlightAware ADS-B
Fri 06:52:08 AM 37.2050 -77.1420 209° Southwest 387 445 28,000  Level FlightAware ADS-B
Fri 06:52:46 AM 37.1420 -77.1690 199° South 386 444 28,000  Level FlightAware ADS-B
Fri 06:53:29 AM 37.0780 -77.1830 190° South 380 437 28,000  Level FlightAware ADS-B
Fri 06:54:11 AM 37.0000 -77.2010 190° South 379 436 28,000  Level FlightAware ADS-B
Fri 06:54:51 AM 36.9300 -77.2160 190° South 378 435 28,000  Level FlightAware ADS-B
Fri 06:55:41 AM 36.8560 -77.2310 189° South 378 435 28,000  Level FlightAware ADS-B
Fri 06:56:17 AM 36.8040 -77.2410 189° South 378 435 28,000  Level FlightAware ADS-B
Fri 06:57:00 AM 36.6920 -77.2700 192° South 393 452 28,000  Level FlightAware ADS-B
Fri 06:57:42 AM 36.6150 -77.2870 190° South 394 453 28,000  Level FlightAware ADS-B
Fri 06:58:20 AM 36.5490 -77.3020 190° South 396 456 28,000  Level FlightAware ADS-B
Fri 06:59:10 AM 36.4550 -77.3230 190° South 399 459 28,000  Level FlightAware ADS-B
Fri 06:59:52 AM 36.3830 -77.3390 190° South 401 461 28,000  Level FlightAware ADS-B
Fri 07:00:31 AM 36.3100 -77.3550 190° South 402 463 28,000  Level FlightAware ADS-B
Fri 07:01:12 AM 36.2360 -77.3710 190° South 403 464 28,000  Level FlightAware ADS-B
Fri 07:01:56 AM 36.1520 -77.3890 190° South 403 464 28,000  Level FlightAware ADS-B
Fri 07:02:36 AM 36.0820 -77.4050 190° South 403 464 28,000  Level FlightAware ADS-B
Fri 07:03:28 AM 35.9900 -77.4250 190° South 396 456 28,000  Level FlightAware ADS-B
Fri 07:04:14 AM 35.9030 -77.4440 190° South 396 456 28,000  Level FlightAware ADS-B
Fri 07:04:53 AM 35.8340 -77.4590 190° South 405 466 28,000  Level FlightAware ADS-B
Fri 07:05:39 AM 35.7450 -77.4780 190° South 405 466 28,000  Level FlightAware ADS-B
Fri 07:06:18 AM 35.6690 -77.4940 190° South 396 456 28,000  Level FlightAware ADS-B
Fri 07:07:03 AM 35.5900 -77.5160 193° South 402 463 28,000  Level FlightAware ADS-B
Fri 07:07:48 AM 35.5210 -77.5770 216° Southwest 396 456 28,000  Level FlightAware ADS-B
Fri 07:08:43 AM 35.4440 -77.6500 218° Southwest 394 453 28,000  Level FlightAware ADS-B
Fri 07:09:34 AM 35.3750 -77.7160 218° Southwest 394 453 28,000  Level FlightAware ADS-B
Fri 07:10:22 AM 35.3160 -77.7720 218° Southwest 394 453 28,000  Level FlightAware ADS-B
Fri 07:10:59 AM 35.2710 -77.8150 218° Southwest 394 453 28,000  Level FlightAware ADS-B
Fri 07:11:33 AM 35.2290 -77.8550 218° Southwest 394 453 28,000  Level FlightAware ADS-B
Fri 07:12:21 AM 35.1710 -77.9110 218° Southwest 394 453 28,000  Level FlightAware ADS-B
Fri 07:12:57 AM 35.1270 -77.9530 218° Southwest 394 453 28,000  Level FlightAware ADS-B
Fri 07:14:53 AM 34.9160 -78.1590 219° Southwest 28,000  Level FlightAware ADS-B
Fri 07:15:17 AM 34.8822 -78.1897 219° Southwest 397 457 28,000  Level Washington Center
Fri 07:16:17 AM 34.8011 -78.2756 221° Southwest 397 457 28,000  Level Washington Center
Fri 07:21:19 AM 34.3710 -78.6780 221° Southwest 387 445 28,000  Level FlightAware ADS-B
Fri 07:22:35 AM 34.3200 -78.7260 218° Southwest 387 445 28,000  Level FlightAware ADS-B
Fri 07:23:34 AM 34.1800 -78.8570 218° Southwest 385 443 28,000  Level FlightAware ADS-B
Fri 07:24:14 AM 34.1220 -78.9110 218° Southwest 384 442 28,000  Level FlightAware ADS-B
Fri 07:24:54 AM 34.0660 -78.9640 218° Southwest 396 456 28,000  Level FlightAware ADS-B
Fri 07:25:34 AM 34.0090 -79.0170 218° Southwest 397 457 28,000  Level FlightAware ADS-B
Fri 07:26:14 AM 33.9490 -79.0720 217° Southwest 397 457 28,000  Level FlightAware ADS-B
Fri 07:26:59 AM 33.8840 -79.1330 218° Southwest 398 458 28,000  Level FlightAware ADS-B
Fri 07:27:44 AM 33.8190 -79.1930 217° Southwest 397 457 28,000  Level FlightAware ADS-B
Fri 07:28:25 AM 33.7600 -79.2480 218° Southwest 396 456 28,000  Level FlightAware ADS-B
Fri 07:29:04 AM 33.7020 -79.3010 217° Southwest 397 457 28,000  Level FlightAware ADS-B
Fri 07:29:49 AM 33.6370 -79.3620 218° Southwest 398 458 28,000  Level FlightAware ADS-B
Fri 07:30:29 AM 33.5780 -79.4150 217° Southwest 400 460 28,000  Level FlightAware ADS-B
Fri 07:31:09 AM 33.5190 -79.4690 217° Southwest 402 463 28,000  Level FlightAware ADS-B
Fri 07:31:54 AM 33.4560 -79.5280 218° Southwest 402 463 28,000  Level FlightAware ADS-B
Fri 07:32:39 AM 33.3860 -79.5920 217° Southwest 401 461 28,000  Level FlightAware ADS-B
Fri 07:33:19 AM 33.3280 -79.6450 217° Southwest 401 461 28,000  Level FlightAware ADS-B
Fri 07:34:01 AM 33.2720 -79.6960 217° Southwest 402 463 28,000  Level FlightAware ADS-B
Fri 07:34:39 AM 33.2100 -79.7520 217° Southwest 403 464 28,000  Level FlightAware ADS-B
Fri 07:35:24 AM 33.1430 -79.8130 217° Southwest 404 465 28,000  Level FlightAware ADS-B
Fri 07:36:04 AM 33.0830 -79.8670 217° Southwest 405 466 28,000  Level FlightAware ADS-B
Fri 07:36:49 AM 33.0160 -79.9280 217° Southwest 404 465 28,000  Level FlightAware ADS-B
Fri 07:37:29 AM 32.9550 -79.9830 217° Southwest 404 465 28,000  Level FlightAware ADS-B
Fri 07:38:14 AM 32.8880 -80.0420 216° Southwest 402 463 28,000  Level FlightAware ADS-B
Fri 07:38:54 AM 32.8270 -80.0870 212° Southwest 402 463 28,000  Level FlightAware ADS-B
Fri 07:39:39 AM 32.7540 -80.1420 212° Southwest 402 463 28,000  Level FlightAware ADS-B
Fri 07:40:19 AM 32.6910 -80.1880 212° Southwest 400 460 28,000  Level FlightAware ADS-B
Fri 07:41:04 AM 32.6210 -80.2400 212° Southwest 400 460 28,000  Level FlightAware ADS-B
Fri 07:41:44 AM 32.5560 -80.2870 211° Southwest 399 459 28,000  Level FlightAware ADS-B
Fri 07:42:25 AM 32.4970 -80.3300 212° Southwest 397 457 28,000  Level FlightAware ADS-B
Fri 07:43:09 AM 32.4250 -80.3830 212° Southwest 396 456 28,000  Level FlightAware ADS-B
Fri 07:43:49 AM 32.3620 -80.4290 212° Southwest 396 456 28,000  Level FlightAware ADS-B
Fri 07:44:44 AM 32.2770 -80.4910 212° Southwest 395 455 28,000  Level FlightAware ADS-B
Fri 07:45:24 AM 32.2200 -80.5320 211° Southwest 395 455 28,000  Level FlightAware ADS-B
Fri 07:46:04 AM 32.1570 -80.5790 212° Southwest 396 456 28,000  Level FlightAware ADS-B
Fri 07:46:46 AM 32.0920 -80.6260 211° Southwest 397 457 28,000  Level FlightAware ADS-B
Fri 07:47:34 AM 32.0240 -80.6750 211° Southwest 397 457 28,000  Level FlightAware ADS-B
Fri 07:48:15 AM 31.9560 -80.7240 211° Southwest 398 458 28,000  Level FlightAware ADS-B
Fri 07:48:55 AM 31.8910 -80.7710 212° Southwest 398 458 28,000  Level FlightAware ADS-B
Fri 07:49:36 AM 31.8230 -80.8200 211° Southwest 399 459 28,000  Level FlightAware ADS-B
Fri 07:50:14 AM 31.7760 -80.8540 212° Southwest 399 459 28,000  Level FlightAware ADS-B
Fri 07:51:03 AM 31.6940 -80.9130 211° Southwest 400 460 28,000  Level FlightAware ADS-B
Fri 07:51:47 AM 31.6310 -80.9490 206° Southwest 402 463 28,000  Level FlightAware ADS-B
Fri 07:52:24 AM 31.5450 -80.9680 191° South 407 468 28,000  Level FlightAware ADS-B
Fri 07:53:27 AM 31.4390 -80.9900 190° South 408 470 28,000  Level FlightAware ADS-B
Fri 07:54:16 AM 31.3490 -81.0090 190° South 410 472 28,000  Level FlightAware ADS-B
Fri 07:55:18 AM 31.2510 -81.0290 190° South 410 472 28,000  Level FlightAware ADS-B
Fri 07:55:55 AM 31.1920 -81.0410 190° South 410 472 28,000  Level FlightAware ADS-B
Fri 07:56:32 AM 31.1330 -81.0530 190° South 410 472 28,000  Level FlightAware ADS-B
Fri 07:57:22 AM 31.0540 -81.0690 190° South 410 472 28,000  Level FlightAware ADS-B
Fri 08:02:58 AM 30.3370 -81.0010 175° South 418 481 28,000  Level FlightAware ADS-B
Fri 08:03:34 AM 30.2650 -80.9890 172° South 419 482 28,000  Level FlightAware ADS-B
Fri 08:04:22 AM 30.1790 -80.9740 171° South 420 483 28,000  Level FlightAware ADS-B
Fri 08:05:04 AM 30.0960 -80.9610 172° South 421 484 28,000  Level FlightAware ADS-B
Fri 08:05:59 AM 29.9930 -80.9440 172° South 420 483 28,000  Level FlightAware ADS-B
Fri 08:06:56 AM 29.9880 -80.9430 170° South 419 482 28,000  Level FlightAware ADS-B
Fri 08:07:32 AM 29.9300 -80.9330 172° South 419 482 28,000  Level FlightAware ADS-B
Fri 08:08:20 AM 29.8510 -80.9210 172° South 419 482 28,000  Level FlightAware ADS-B
Fri 08:08:57 AM 29.7910 -80.9110 172° South 419 482 28,000  Level FlightAware ADS-B
Fri 08:09:46 AM 29.7110 -80.8980 172° South 419 482 28,000  Level FlightAware ADS-B
Fri 08:10:23 AM 29.6510 -80.8880 172° South 419 482 28,000  Level FlightAware ADS-B
Fri 08:11:22 AM 29.3692 -80.8408 172° South 414 476 28,000  Level Jacksonville Center
Fri 08:11:45 AM 29.3219 -80.8356 174° South 417 480 28,000  Level Miami Center
Fri 08:17:11 AM 28.6860 -80.7290 174° South 420 483 28,000  Level FlightAware ADS-B
Fri 08:18:05 AM 28.5910 -80.7140 172° South 420 483 28,000  Level FlightAware ADS-B
Fri 08:18:51 AM 28.4940 -80.6980 172° South 418 481 28,000  Level FlightAware ADS-B
Fri 08:19:27 AM 28.4260 -80.6870 172° South 405 466 28,000  Level FlightAware ADS-B
Fri 08:20:07 AM 28.3520 -80.6750 172° South 402 463 28,000  Level FlightAware ADS-B
Fri 08:20:37 AM 28.3050 -80.6670 171° South 402 463 28,000  Level FlightAware ADS-B
Fri 08:21:25 AM 28.2100 -80.6520 172° South 400 460 28,000 -133 Level FlightAware ADS-B
Fri 08:22:07 AM 28.1320 -80.6400 172° South 401 461 27,800 -659 Descending FlightAware ADS-B
Fri 08:22:47 AM 28.0590 -80.6190 166° South 412 474 27,100 -675 Descending FlightAware ADS-B
Fri 08:23:27 AM 27.9940 -80.5970 163° South 414 476 26,900 -136 Descending FlightAware ADS-B
Fri 08:24:15 AM 27.9200 -80.5710 163° South 414 476 26,900  Level FlightAware ADS-B
Fri 08:24:50 AM 27.8650 -80.5530 164° South 414 476 26,900  Level FlightAware ADS-B
Fri 08:25:38 AM 27.7900 -80.5270 163° South 414 476 26,900  Level FlightAware ADS-B
Fri 08:26:15 AM 27.7330 -80.5070 163° South 414 476 26,900  Level FlightAware ADS-B
Fri 08:26:52 AM 27.6750 -80.4870 163° South 414 476 26,900 -1,933 Level FlightAware ADS-B
Fri 08:27:45 AM 27.5319 -80.4331 163° South 410 472 24,000 -1,410 Descending Miami Center
Fri 08:33:32 AM 26.9120 -80.1800 163° South 359 413 17,500 -1,064 Descending FlightAware ADS-B
Fri 08:34:14 AM 26.8570 -80.1570 160° South 363 418 17,100 -1,929 Descending FlightAware ADS-B
Fri 08:34:56 AM 26.7850 -80.1120 151° Southeast 347 399 14,800 -2,462 Descending FlightAware ADS-B
Fri 08:35:32 AM 26.7400 -80.0810 148° Southeast 344 396 13,900 -1,286 Descending FlightAware ADS-B
Fri 08:36:20 AM 26.6660 -80.0390 153° Southeast 342 394 13,000 -600 Descending FlightAware ADS-B
Fri 08:37:02 AM 26.6010 -80.0300 173° South 336 387 13,000  Level FlightAware ADS-B
Fri 08:37:46 AM 26.5330 -80.0250 176° South 333 383 13,000 -214 Level FlightAware ADS-B
Fri 08:38:26 AM 26.4730 -80.0230 178° South 332 382 12,700 -975 Descending FlightAware ADS-B
Fri 08:39:06 AM 26.4110 -80.0200 178° South 335 386 11,700 -1,214 Descending FlightAware ADS-B
Fri 08:39:50 AM 26.3460 -80.0170 178° South 315 362 11,000 -847 Descending FlightAware ADS-B
Fri 08:40:31 AM 26.2860 -80.0150 178° South 292 336 10,500 -750 Descending FlightAware ADS-B
Fri 08:41:10 AM 26.2350 -80.0150 180° South 283 326 10,000 -462 Descending FlightAware ADS-B
Fri 08:41:36 AM 26.2010 -80.0150 180° South 271 312 10,000  Level FlightAware ADS-B
Fri 08:42:08 AM 26.1630 -80.0150 180° South 255 293 10,000 -98 Level FlightAware ADS-B
Fri 08:42:37 AM 26.1280 -80.0150 180° South 256 295 9,900 -1,080 Descending FlightAware ADS-B
Fri 08:42:58 AM 26.1030 -80.0150 180° South 255 293 9,100 -2,308 Descending FlightAware ADS-B
Fri 08:43:29 AM 26.0640 -80.0150 180° South 273 314 7,900 -1,935 Descending FlightAware ADS-B
Fri 08:44:00 AM 26.0260 -80.0150 180° South 257 296 7,100 -1,342 Descending FlightAware ADS-B
Fri 08:44:45 AM 25.9710 -80.0170 182° South 240 276 6,200 -1,182 Descending FlightAware ADS-B
Fri 08:45:06 AM 25.9500 -80.0220 192° South 227 261 5,800 -1,358 Descending FlightAware ADS-B
Fri 08:45:38 AM 25.9180 -80.0290 191° South 214 246 5,000 -1,560 Descending FlightAware ADS-B
Fri 08:45:56 AM 25.9010 -80.0340 195° South 208 239 4,500 -1,610 Descending FlightAware ADS-B
Fri 08:46:19 AM 25.8790 -80.0390 192° South 201 231 3,900 -1,500 Descending FlightAware ADS-B
Fri 08:46:48 AM 25.8540 -80.0440 190° South 191 220 3,200 -1,286 Descending FlightAware ADS-B
Fri 08:47:01 AM 25.8460 -80.0490 209° Southwest 185 213 3,000 -621 Descending FlightAware ADS-B
Fri 08:47:17 AM 25.8370 -80.0630 234° Southwest 174 200 2,900  Descending FlightAware ADS-B
Fri 08:47:46 AM 25.8240 -80.0830 234° Southwest 166 191 3,000 105 Climbing FlightAware ADS-B
Fri 08:48:14 AM 25.8140 -80.1040 242° Southwest 168 193 3,000 -421 Level FlightAware ADS-B
Fri 08:48:43 AM 25.8110 -80.1280 262° West 172 198 2,600 -792 Descending FlightAware ADS-B
Fri 08:49:07 AM 25.8090 -80.1490 264° West 163 188 2,300 -808 Descending FlightAware ADS-B
Fri 08:49:35 AM 25.8080 -80.1690 267° West 152 175 1,900 -828 Descending FlightAware ADS-B
Fri 08:50:05 AM 25.8080 -80.1940 270° West 140 161 1,500 -724 Descending FlightAware ADS-B
Fri 08:50:33 AM 25.8070 -80.2140 267° West 142 163 1,200 -750 Descending FlightAware ADS-B
Fri 08:50:45 AM 25.8060 -80.2230 263° West 137 158 1,000 -857 Descending FlightAware ADS-B
Fri 08:51:15 AM 25.8050 -80.2450 267° West 143 165 600 -814 Descending FlightAware ADS-B
Fri 08:51:44 AM 25.8040 -80.2660 267° West 141 162 200 -828 Descending FlightAware ADS-B
Fri 08:52:40 AM 25.8030 -80.2940 268° West 33 38 -214 Descending FlightAware ADS-B
Fri 08:52:48 AM 25.8020 -80.2950 222° Southwest 26 30  Level FlightAware ADS-B
Fri 08:53:15 AM 25.8000 -80.2950 180° South 16 18  Level FlightAware ADS-B

Login

Don't have an account? Register now (free) for customized features, flight alerts, and more!